Terminal Aerodrome Forecast
Issued by NWS

Home | Current Version | Previous Version | Text Only | Print | Product List | Glossary On
Versions: 1 2 3 4 5 6 7 8 9 10 11 12 13 14 15 16 17 18 19
000
FTUS44 KCRP 202300
TAFLRD
TAF
KLRD 202329Z 2100/2124 06010KT P6SM SCT040 BKN100
      TEMPO 2100/2102 -SHRA SCT040
     FM210800 05005KT 6SM BR SCT015
      TEMPO 2112/2115 6SM BR BKN015
     FM211500 09011KT P6SM SCT025 BKN040=

USA.gov is the U.S. government's official web portal to all federal, state and local government web resources and services.